LGMK Airport Information

Runway Information
Runway 16 Length 6244 ft width 98 ft
Elevation 395 ft Threshold 0 ft Heading 160
Runway 34 Length 6244 ft Width 98 ft
Elevation 388 ft Threshold 0 ft Heading 340
Airport Frequencies
Type A/G Name RDO Frequency 563.7 MHZ
Type APP Name APP Frequency 118.75 MHZ
Type TWR Name TWR Frequency 118.75 MHZ
Airport Navaids
Type VOR-DME Name Mikonos Frequency 110000 KHZ
Type NDB Name Mikonos Frequency 401 KHZ
Airport Weather Information & NOTAM
ADDS - METARS form results

(0316 UTC 27 July 2021)
Data provider http://aviationweather.gov/metar/data/
 
METAR text: LGMK 270250Z 01018KT CAVOK 24/17 Q1014
Conditions at: LGMK (MIKONOS ISLAND , GR) observed 0250 UTC 27 July 2021
Temperature: 24.0°C (75°F)
Dewpoint: 17.0°C (63°F) [RH = 65%]
Pressure (altimeter): 29.94 inches Hg (1014.0 mb)
Winds: from the N (10 degrees) at 21 MPH (18 knots; 9.3 m/s)
Visibility: 6 or more miles (10+ km)
Ceiling: ceiling and visibility are OK
Clouds: unknown
Weather: no significant weather observed at this time

METAR text: LGMK 270220Z 02014KT CAVOK 24/17 Q1014
Conditions at: LGMK (MIKONOS ISLAND , GR) observed 0220 UTC 27 July 2021
Temperature: 24.0°C (75°F)
Dewpoint: 17.0°C (63°F) [RH = 65%]
Pressure (altimeter): 29.94 inches Hg (1014.0 mb)
Winds: from the NNE (20 degrees) at 16 MPH (14 knots; 7.2 m/s)
Visibility: 6 or more miles (10+ km)
Ceiling: ceiling and visibility are OK
Clouds: unknown
Weather: no significant weather observed at this time

Forecast for: LGMK (MIKONOS ISLAND , GR)
Text: TAF LGMK 270200Z 2703/2712 36017KT 9999 FEW018
Forecast period: 0300 to 1200 UTC 27 July 2021
Forecast type: FROM: standard forecast or significant change
Winds: from the N (360 degrees) at 20 MPH (17 knots; 8.7 m/s)
Visibility: 6 or more miles (10+ km)
Ceiling: at least 12,000 feet AGL
Clouds: few clouds at 1800 feet AGL
Weather: no significant weather forecast for this period
Text: TEMPO 2703/2712 36020G30KT
Forecast period: 0300 to 1200 UTC 27 July 2021
Forecast type: TEMPORARY: The following changes expected for less than half the time period
Winds: from the N (360 degrees) at 23 MPH (20 knots; 10.3 m/s)
gusting to 34 MPH (30 knots; 15.4 m/s)
Visibility: missing
Ceiling: unknown
Clouds: missing
Weather: no significant weather forecast for this period